createdAt,value
2023-03-17T00:02:06.981Z,14.00
2023-03-17T00:04:40.158Z,13.67
2023-03-17T00:07:16.580Z,13.75
2023-03-17T00:09:49.810Z,13.50
2023-03-17T00:12:23.004Z,14.55
2023-03-17T00:14:56.197Z,14.30
2023-03-17T00:17:29.377Z,12.80
2023-03-17T00:20:02.373Z,13.50
2023-03-17T00:22:36.371Z,13.80
2023-03-17T00:25:18.519Z,12.80
2023-03-17T00:27:52.178Z,13.88
2023-03-17T00:30:25.361Z,13.07
2023-03-17T00:32:59.397Z,13.35
2023-03-17T00:35:32.586Z,12.90
2023-03-17T00:38:05.612Z,14.25
2023-03-17T00:40:38.734Z,12.40
2023-03-17T00:43:12.125Z,13.77
2023-03-17T00:45:45.313Z,12.15
2023-03-17T00:48:19.120Z,12.83
2023-03-17T00:50:52.516Z,13.80
2023-03-17T00:53:26.325Z,13.35
2023-03-17T00:55:59.507Z,14.30
2023-03-17T00:58:33.930Z,13.20
2023-03-17T01:01:06.993Z,13.45
2023-03-17T01:03:40.519Z,13.57
2023-03-17T01:06:14.868Z,13.63
2023-03-17T01:08:47.919Z,13.90
2023-03-17T01:11:22.961Z,13.60
2023-03-17T01:13:55.930Z,13.10
2023-03-17T01:16:29.386Z,13.60
2023-03-17T01:19:02.772Z,13.85
2023-03-17T01:21:36.115Z,13.45
2023-03-17T01:24:10.154Z,14.17
2023-03-17T01:26:43.521Z,12.35
2023-03-17T01:29:16.705Z,13.55
2023-03-17T01:31:49.945Z,13.57
2023-03-17T01:34:23.699Z,13.80
2023-03-17T01:36:57.097Z,12.85
2023-03-17T01:39:30.901Z,14.60
2023-03-17T01:42:06.139Z,13.00
2023-03-17T01:44:52.229Z,12.40
2023-03-17T01:47:27.057Z,12.85
2023-03-17T01:50:00.711Z,12.90
2023-03-17T01:52:34.727Z,13.00
2023-03-17T01:55:11.603Z,13.45
2023-03-17T01:57:47.467Z,12.90
2023-03-17T02:00:23.662Z,11.85
2023-03-17T02:02:58.555Z,12.75
2023-03-17T02:05:33.306Z,12.70
2023-03-17T02:08:10.677Z,12.00
2023-03-17T02:10:45.216Z,12.95
2023-03-17T02:13:19.237Z,12.55
2023-03-17T02:15:59.585Z,11.87
2023-03-17T02:18:32.364Z,12.70
2023-03-17T02:21:20.097Z,12.80
2023-03-17T02:23:55.347Z,11.30
2023-03-17T02:26:28.541Z,12.90
2023-03-17T02:29:03.998Z,13.15
2023-03-17T02:31:37.154Z,12.20
2023-03-17T02:34:10.344Z,12.35
2023-03-17T02:36:43.688Z,12.20
2023-03-17T02:39:16.928Z,11.50
2023-03-17T02:41:50.129Z,11.70
2023-03-17T02:44:23.313Z,11.35
2023-03-17T02:46:59.572Z,11.17
2023-03-17T02:49:33.786Z,11.45
2023-03-17T02:52:07.800Z,11.50
2023-03-17T02:54:40.984Z,11.90
2023-03-17T02:57:14.378Z,11.25
2023-03-17T02:59:47.775Z,11.93
2023-03-17T03:02:21.008Z,10.20
2023-03-17T03:04:53.558Z,11.05
2023-03-17T03:07:27.140Z,10.55
2023-03-17T03:10:00.166Z,10.13
2023-03-17T03:12:33.320Z,10.57
2023-03-17T03:15:07.527Z,10.60
2023-03-17T03:17:40.717Z,9.65
2023-03-17T03:20:14.929Z,10.35
2023-03-17T03:22:48.120Z,11.40
2023-03-17T03:25:22.410Z,11.55
2023-03-17T03:27:55.732Z,10.83
2023-03-17T03:30:29.258Z,11.80
2023-03-17T03:33:03.201Z,11.20
2023-03-17T03:35:36.198Z,10.80
2023-03-17T03:38:09.715Z,10.55
2023-03-17T03:40:42.904Z,10.95
2023-03-17T03:43:23.400Z,11.05
2023-03-17T03:45:57.089Z,11.35
2023-03-17T03:48:30.050Z,11.05
2023-03-17T03:51:04.262Z,11.27
2023-03-17T03:53:37.654Z,11.55
2023-03-17T03:56:11.666Z,11.50
2023-03-17T03:58:45.058Z,11.53
2023-03-17T04:01:18.452Z,11.17
2023-03-17T04:03:52.456Z,11.25
2023-03-17T04:06:25.655Z,10.65
2023-03-17T04:08:58.854Z,10.80
2023-03-17T04:11:32.668Z,10.30
2023-03-17T04:14:07.673Z,10.30
2023-03-17T04:16:42.907Z,11.45
2023-03-17T04:19:16.739Z,11.35
2023-03-17T04:21:49.715Z,11.23
2023-03-17T04:24:23.096Z,11.00
2023-03-17T04:26:56.693Z,10.53
2023-03-17T04:29:29.684Z,11.90
2023-03-17T04:32:03.070Z,11.80
2023-03-17T04:34:36.085Z,11.85
2023-03-17T04:37:09.669Z,11.65
2023-03-17T04:39:44.278Z,11.10
2023-03-17T04:42:18.290Z,12.20
2023-03-17T04:44:51.282Z,11.80
2023-03-17T04:47:24.681Z,12.90
2023-03-17T04:49:58.475Z,11.50
2023-03-17T04:52:31.872Z,11.00
2023-03-17T04:55:05.671Z,12.37
2023-03-17T04:57:38.978Z,11.55
2023-03-17T05:00:15.724Z,11.60
2023-03-17T05:02:49.350Z,14.40
2023-03-17T05:05:21.929Z,13.65
2023-03-17T05:07:55.509Z,14.17
2023-03-17T05:10:28.098Z,14.30
2023-03-17T05:13:01.280Z,15.40
2023-03-17T05:15:34.673Z,14.10
2023-03-17T05:18:08.484Z,14.27
2023-03-17T05:20:41.050Z,14.65
2023-03-17T05:23:14.236Z,14.80
2023-03-17T05:25:48.659Z,14.80
2023-03-17T05:28:22.048Z,15.60
2023-03-17T05:30:55.051Z,14.75
2023-03-17T05:33:29.458Z,15.40
2023-03-17T05:36:03.928Z,16.70
2023-03-17T05:38:37.278Z,15.95
2023-03-17T05:41:11.070Z,16.80
2023-03-17T05:43:43.848Z,16.15
2023-03-17T05:46:19.779Z,17.50
2023-03-17T05:48:53.918Z,16.95
2023-03-17T05:51:28.137Z,17.50
2023-03-17T05:54:01.320Z,16.63
2023-03-17T05:56:34.948Z,18.07
2023-03-17T05:59:08.722Z,18.25
2023-03-17T06:01:41.916Z,18.07
2023-03-17T06:04:15.100Z,19.00
2023-03-17T06:06:48.769Z,16.85
2023-03-17T06:09:21.685Z,18.40
2023-03-17T06:11:54.880Z,18.57
2023-03-17T06:14:28.482Z,17.30
2023-03-17T06:17:01.459Z,18.17
2023-03-17T06:19:34.868Z,18.30
2023-03-17T06:22:09.688Z,18.90
2023-03-17T06:24:43.082Z,19.00
2023-03-17T06:27:16.286Z,19.65
2023-03-17T06:29:50.070Z,17.95
2023-03-17T06:32:23.474Z,13.47
2023-03-17T06:34:56.657Z,13.60
2023-03-17T06:37:30.254Z,12.95
2023-03-17T06:40:05.707Z,13.10
2023-03-17T06:42:38.702Z,12.93
2023-03-17T06:45:14.355Z,10.55
2023-03-17T06:47:47.730Z,10.00
2023-03-17T06:50:20.316Z,7.80
2023-03-17T06:55:24.222Z,7.75
2023-03-17T06:57:59.279Z,6.30
2023-03-17T07:00:33.469Z,6.90
2023-03-17T07:03:06.658Z,6.00
2023-03-17T07:05:39.862Z,5.50
2023-03-17T07:08:12.946Z,5.85
2023-03-17T07:10:46.220Z,5.20
2023-03-17T07:13:19.618Z,5.60
2023-03-17T07:15:55.168Z,5.40
2023-03-17T07:18:28.048Z,5.93
2023-03-17T07:21:01.682Z,5.55
2023-03-17T07:23:34.430Z,4.70
2023-03-17T07:26:07.618Z,4.70
2023-03-17T07:28:40.796Z,4.85
2023-03-17T07:31:14.856Z,3.97
2023-03-17T07:33:48.220Z,4.90
2023-03-17T07:36:20.677Z,3.10
2023-03-17T07:38:53.564Z,3.20
2023-03-17T07:41:26.752Z,3.77
2023-03-17T07:43:59.968Z,3.50
2023-03-17T07:46:33.030Z,2.55
2023-03-17T07:49:06.379Z,3.20
2023-03-17T07:51:39.512Z,3.27
2023-03-17T07:54:15.102Z,3.40
2023-03-17T07:56:48.968Z,3.50
2023-03-17T07:59:22.765Z,3.55
2023-03-17T08:01:58.487Z,3.60
2023-03-17T08:04:32.012Z,3.90
2023-03-17T08:07:06.657Z,3.83
2023-03-17T08:09:40.049Z,2.90
2023-03-17T08:12:15.076Z,2.90
2023-03-17T08:14:48.255Z,3.00
2023-03-17T08:17:21.859Z,3.25
2023-03-17T08:19:55.268Z,3.60
2023-03-17T08:22:28.643Z,4.00
2023-03-17T08:25:01.649Z,3.02
2023-03-17T08:27:34.871Z,3.15
2023-03-17T08:30:09.826Z,3.67
2023-03-17T08:32:43.491Z,4.05
2023-03-17T08:35:16.442Z,3.72
2023-03-17T08:37:50.031Z,3.40
2023-03-17T08:40:24.544Z,4.33
2023-03-17T08:42:57.848Z,3.85
2023-03-17T08:45:31.549Z,3.67
2023-03-17T08:48:05.459Z,4.30
2023-03-17T08:50:38.036Z,4.58
2023-03-17T08:53:12.251Z,3.95
2023-03-17T08:55:45.642Z,3.67
2023-03-17T08:58:20.678Z,2.90
2023-03-17T09:00:54.097Z,3.20
2023-03-17T09:03:26.848Z,3.00
2023-03-17T09:05:59.944Z,2.90
2023-03-17T09:08:33.432Z,2.92
2023-03-17T09:11:07.452Z,2.62
2023-03-17T09:13:41.862Z,3.25
2023-03-17T09:16:16.589Z,2.45
2023-03-17T09:18:50.084Z,3.05
2023-03-17T09:21:22.869Z,2.75
2023-03-17T09:23:56.463Z,3.05
2023-03-17T09:26:29.736Z,3.42
2023-03-17T09:29:03.877Z,2.80
2023-03-17T09:31:37.927Z,2.75
2023-03-17T09:34:12.087Z,2.70
2023-03-17T09:36:45.693Z,2.22
2023-03-17T09:39:19.291Z,2.25
2023-03-17T09:41:57.215Z,2.95
2023-03-17T09:44:34.390Z,2.67
2023-03-17T09:47:11.555Z,2.70
2023-03-17T09:49:46.997Z,3.00
2023-03-17T09:52:22.040Z,2.75
2023-03-17T09:54:55.633Z,2.60
2023-03-17T09:57:31.200Z,3.02
2023-03-17T10:00:07.614Z,3.00
2023-03-17T10:02:40.524Z,2.90
2023-03-17T10:05:19.661Z,2.98
2023-03-17T10:07:56.859Z,2.77
2023-03-17T10:10:31.670Z,3.00
2023-03-17T10:13:08.855Z,2.95
2023-03-17T10:15:46.824Z,3.12
2023-03-17T10:18:20.554Z,2.90
2023-03-17T10:20:54.766Z,3.40
2023-03-17T10:23:28.718Z,2.80
2023-03-17T10:26:02.644Z,2.92
2023-03-17T10:28:39.081Z,3.30
2023-03-17T10:31:16.705Z,3.12
2023-03-17T10:33:52.617Z,3.17
2023-03-17T10:36:38.086Z,2.80
2023-03-17T10:39:14.749Z,2.70
2023-03-17T10:41:53.700Z,2.77
2023-03-17T10:44:36.903Z,3.50
2023-03-17T10:47:24.275Z,2.60
2023-03-17T10:49:58.234Z,2.52
2023-03-17T10:52:33.053Z,2.47
2023-03-17T10:55:09.339Z,3.00
2023-03-17T10:57:51.523Z,2.90
2023-03-17T11:02:58.693Z,3.35
2023-03-17T11:05:31.507Z,3.20
2023-03-17T11:08:11.775Z,2.98
2023-03-17T11:10:44.843Z,3.27
2023-03-17T11:13:18.968Z,3.08
2023-03-17T11:15:54.700Z,3.35
2023-03-17T11:18:32.152Z,2.67
2023-03-17T11:21:08.614Z,3.20
2023-03-17T11:23:49.247Z,3.12
2023-03-17T11:26:33.493Z,3.40
2023-03-17T11:29:17.711Z,3.02
2023-03-17T11:31:54.212Z,3.30
2023-03-17T11:34:34.344Z,2.70
2023-03-17T11:37:13.681Z,2.90
2023-03-17T11:39:50.966Z,2.60
2023-03-17T11:42:26.037Z,2.92
2023-03-17T11:45:19.670Z,3.12
2023-03-17T11:48:06.422Z,2.50
2023-03-17T11:50:42.182Z,2.85
2023-03-17T11:53:26.071Z,3.02
2023-03-17T11:56:01.842Z,3.12
2023-03-17T11:58:37.249Z,2.95
2023-03-17T12:01:12.266Z,3.12
2023-03-17T12:03:46.380Z,2.90
2023-03-17T12:06:21.093Z,3.55
2023-03-17T12:08:56.470Z,3.10
2023-03-17T12:11:31.939Z,3.60
2023-03-17T12:14:06.837Z,3.72
2023-03-17T12:16:41.872Z,3.20
2023-03-17T12:19:16.829Z,3.27
2023-03-17T12:21:52.708Z,2.98
2023-03-17T12:24:29.115Z,3.15
2023-03-17T12:27:04.675Z,3.00
2023-03-17T12:29:43.858Z,3.00
2023-03-17T12:32:19.959Z,2.77
2023-03-17T12:34:55.428Z,3.83
2023-03-17T12:37:30.628Z,3.17
2023-03-17T12:40:07.526Z,2.65
2023-03-17T12:42:44.605Z,3.12
2023-03-17T12:45:26.794Z,3.98
2023-03-17T12:50:38.250Z,2.92
2023-03-17T12:53:30.424Z,3.35
2023-03-17T12:56:08.438Z,3.30
2023-03-17T12:58:45.247Z,2.83
2023-03-17T13:01:23.238Z,3.17
2023-03-17T13:04:02.054Z,3.85
2023-03-17T13:06:36.426Z,3.72
2023-03-17T13:09:26.942Z,3.80
2023-03-17T13:12:00.131Z,3.30
2023-03-17T13:14:42.268Z,3.45
2023-03-17T13:17:35.321Z,2.98
2023-03-17T13:20:16.357Z,3.23
2023-03-17T13:23:03.743Z,3.10
2023-03-17T13:25:37.892Z,3.05
2023-03-17T13:28:27.467Z,3.08
2023-03-17T13:31:11.517Z,3.10
2023-03-17T13:33:46.339Z,3.00
2023-03-17T13:36:32.443Z,3.00
2023-03-17T13:39:20.930Z,2.98
2023-03-17T13:42:01.061Z,3.10
2023-03-17T13:44:51.506Z,3.40
2023-03-17T13:47:30.057Z,4.22
2023-03-17T13:50:05.125Z,3.90
2023-03-17T13:52:40.691Z,3.30
2023-03-17T13:55:32.343Z,3.52
2023-03-17T14:00:38.155Z,3.83
2023-03-17T14:03:13.703Z,4.75
2023-03-17T14:05:48.577Z,4.90
2023-03-17T14:08:24.100Z,4.35
2023-03-17T14:10:59.884Z,4.53
2023-03-17T14:13:36.935Z,4.72
2023-03-17T14:16:13.840Z,5.22
2023-03-17T14:18:49.758Z,4.85
2023-03-17T14:21:23.721Z,5.37
2023-03-17T14:23:57.995Z,4.50
2023-03-17T14:26:31.934Z,4.33
2023-03-17T14:29:06.352Z,4.90
2023-03-17T14:31:40.179Z,5.03
2023-03-17T14:34:16.319Z,5.70
2023-03-17T14:36:48.793Z,4.90
2023-03-17T14:39:26.092Z,4.60
2023-03-17T14:42:02.842Z,4.67
2023-03-17T14:44:42.078Z,4.40
2023-03-17T14:47:20.063Z,4.95
2023-03-17T14:49:54.512Z,5.15
2023-03-17T14:52:28.452Z,5.15
2023-03-17T14:55:01.798Z,6.43
2023-03-17T14:57:34.694Z,5.37
2023-03-17T15:00:29.692Z,5.47
2023-03-17T15:03:05.767Z,5.87
2023-03-17T15:05:41.831Z,6.50
2023-03-17T15:08:34.533Z,5.90
2023-03-17T15:11:09.897Z,5.55
2023-03-17T15:13:42.667Z,5.70
2023-03-17T15:16:19.846Z,5.65
2023-03-17T15:18:56.583Z,5.70
2023-03-17T15:21:34.637Z,5.80
2023-03-17T15:24:20.624Z,6.20
2023-03-17T15:26:59.955Z,6.17
2023-03-17T15:29:33.346Z,6.50
2023-03-17T15:32:12.682Z,7.10
2023-03-17T15:34:46.484Z,8.15
2023-03-17T15:37:20.719Z,8.23
2023-03-17T15:39:55.532Z,8.53
2023-03-17T15:42:30.769Z,7.92
2023-03-17T15:45:04.161Z,9.08
2023-03-17T15:47:40.228Z,8.48
2023-03-17T15:50:18.172Z,8.45
2023-03-17T15:52:53.975Z,8.83
2023-03-17T15:55:29.644Z,8.60
2023-03-17T15:58:02.401Z,9.88
2023-03-17T16:00:35.993Z,8.78
2023-03-17T16:03:14.921Z,9.50
2023-03-17T16:05:47.328Z,10.23
2023-03-17T16:08:20.073Z,9.38
2023-03-17T16:10:53.749Z,10.03
2023-03-17T16:13:27.474Z,9.80
2023-03-17T16:16:01.452Z,10.05
2023-03-17T16:18:36.232Z,11.28
2023-03-17T16:21:09.241Z,14.23
2023-03-17T16:23:42.363Z,17.48
2023-03-17T16:26:16.887Z,19.62
2023-03-17T16:28:50.714Z,18.42
2023-03-17T16:31:29.511Z,18.87
2023-03-17T16:34:03.028Z,18.05
2023-03-17T16:36:36.220Z,17.02
2023-03-17T16:39:11.602Z,15.93
2023-03-17T16:41:44.853Z,14.93
2023-03-17T16:44:18.681Z,14.40
2023-03-17T16:46:51.949Z,15.65
2023-03-17T16:49:26.469Z,20.25
2023-03-17T16:51:59.454Z,21.75
2023-03-17T16:54:33.723Z,23.32
2023-03-17T16:57:08.020Z,21.87
2023-03-17T16:59:41.493Z,21.73
2023-03-17T17:02:16.914Z,21.13
2023-03-17T17:04:49.708Z,19.10
2023-03-17T17:07:22.897Z,18.05
2023-03-17T17:09:56.085Z,18.32
2023-03-17T17:12:29.276Z,20.77
2023-03-17T17:15:02.466Z,23.07
2023-03-17T17:17:36.066Z,24.33
2023-03-17T17:20:15.562Z,21.85
2023-03-17T17:22:49.003Z,21.35
2023-03-17T17:25:21.776Z,19.83
2023-03-17T17:27:54.792Z,20.27
2023-03-17T17:30:29.707Z,20.33
2023-03-17T17:33:03.622Z,21.37
2023-03-17T17:35:36.695Z,25.82
2023-03-17T17:38:14.638Z,25.37
2023-03-17T17:40:47.479Z,25.53
2023-03-17T17:43:20.692Z,26.10
2023-03-17T17:45:54.268Z,23.90
2023-03-17T17:48:28.074Z,23.02
2023-03-17T17:51:00.361Z,22.55
2023-03-17T17:56:04.979Z,24.50
2023-03-17T17:58:38.163Z,25.67
2023-03-17T18:01:12.189Z,26.23
2023-03-17T18:03:45.156Z,24.83
2023-03-17T18:06:18.561Z,23.47
2023-03-17T18:08:52.401Z,27.17
2023-03-17T18:11:25.792Z,25.47
2023-03-17T18:13:58.939Z,24.50
2023-03-17T18:16:32.215Z,23.73
2023-03-17T18:19:05.318Z,25.37
2023-03-17T18:21:38.099Z,27.37
2023-03-17T18:24:11.317Z,26.70
2023-03-17T18:26:44.065Z,26.45
2023-03-17T18:29:17.256Z,19.00
2023-03-17T18:31:51.552Z,19.65
2023-03-17T18:34:26.320Z,19.42
2023-03-17T18:36:59.539Z,19.02
2023-03-17T18:39:33.754Z,19.55
2023-03-17T18:42:06.684Z,19.77
2023-03-17T18:44:40.489Z,17.55
2023-03-17T18:47:15.506Z,16.30
2023-03-17T18:49:48.510Z,16.13
2023-03-17T18:52:22.313Z,15.70
2023-03-17T18:54:55.709Z,15.20
2023-03-17T18:57:29.722Z,15.95
2023-03-17T19:00:03.314Z,16.57
2023-03-17T19:02:37.327Z,15.80
2023-03-17T19:05:12.165Z,16.05
2023-03-17T19:07:45.750Z,15.97
2023-03-17T19:10:19.367Z,15.85
2023-03-17T19:12:53.611Z,15.50
2023-03-17T19:15:26.961Z,15.35
2023-03-17T19:18:00.178Z,14.83
2023-03-17T19:20:34.770Z,15.30
2023-03-17T19:23:08.986Z,15.70
2023-03-17T19:25:42.176Z,15.57
2023-03-17T19:28:15.050Z,15.50
2023-03-17T19:30:49.023Z,15.47
2023-03-17T19:33:22.566Z,14.17
2023-03-17T19:35:57.410Z,15.40
2023-03-17T19:38:30.580Z,16.57
2023-03-17T19:41:04.002Z,15.60
2023-03-17T19:43:41.075Z,15.03
2023-03-17T19:46:15.097Z,14.30
2023-03-17T19:48:48.973Z,14.53
2023-03-17T19:51:22.060Z,12.20
2023-03-17T19:53:55.748Z,11.93
2023-03-17T19:56:28.656Z,11.18
2023-03-17T19:59:02.658Z,11.93
2023-03-17T20:01:38.131Z,10.07
2023-03-17T20:04:17.907Z,8.97
2023-03-17T20:06:52.342Z,5.90
2023-03-17T20:09:27.329Z,5.60
2023-03-17T20:12:02.159Z,5.60
2023-03-17T20:14:35.314Z,4.83
2023-03-17T20:17:08.630Z,5.00
2023-03-17T20:19:42.107Z,4.40
2023-03-17T20:22:15.496Z,3.50
2023-03-17T20:24:48.888Z,4.00
2023-03-17T20:27:24.371Z,3.90
2023-03-17T20:29:58.843Z,4.13
2023-03-17T20:32:32.997Z,3.62
2023-03-17T20:35:07.888Z,3.40
2023-03-17T20:37:41.190Z,3.20
2023-03-17T20:40:16.503Z,3.65
2023-03-17T20:42:49.211Z,3.43
2023-03-17T20:45:22.394Z,3.02
2023-03-17T20:47:56.404Z,3.77
2023-03-17T20:50:30.102Z,3.30
2023-03-17T20:53:04.832Z,3.33
2023-03-17T20:55:38.023Z,2.90
2023-03-17T20:58:13.471Z,3.33
2023-03-17T21:00:46.858Z,3.12
2023-03-17T21:03:21.139Z,3.22
2023-03-17T21:05:55.080Z,3.60
2023-03-17T21:08:28.269Z,3.50
2023-03-17T21:11:01.871Z,3.73
2023-03-17T21:13:34.874Z,3.47
2023-03-17T21:16:08.893Z,3.77
2023-03-17T21:18:41.646Z,3.47
2023-03-17T21:21:14.450Z,4.03
2023-03-17T21:23:47.427Z,3.20
2023-03-17T21:26:20.599Z,3.07
2023-03-17T21:28:53.788Z,3.17
2023-03-17T21:31:27.446Z,3.60
2023-03-17T21:34:00.373Z,3.22
2023-03-17T21:36:33.976Z,2.97
2023-03-17T21:39:07.570Z,2.87
2023-03-17T21:41:42.398Z,2.70
2023-03-17T21:44:16.224Z,3.03
2023-03-17T21:46:50.052Z,2.50
2023-03-17T21:49:24.918Z,2.60
2023-03-17T21:51:57.757Z,3.63
2023-03-17T21:54:30.805Z,2.90
2023-03-17T21:57:05.434Z,3.00
2023-03-17T21:59:40.461Z,2.80
2023-03-17T22:02:14.122Z,3.47
2023-03-17T22:04:47.251Z,2.97
2023-03-17T22:07:20.043Z,2.77
2023-03-17T22:09:54.246Z,2.60
2023-03-17T22:12:27.233Z,2.90
2023-03-17T22:15:00.420Z,2.60
2023-03-17T22:17:33.611Z,2.77
2023-03-17T22:20:09.235Z,2.77
2023-03-17T22:22:42.655Z,3.07
2023-03-17T22:25:15.842Z,3.05
2023-03-17T22:27:49.035Z,2.80
2023-03-17T22:30:22.474Z,2.60
2023-03-17T22:32:55.677Z,3.37
2023-03-17T22:35:29.014Z,2.85
2023-03-17T22:38:02.613Z,2.70
2023-03-17T22:40:36.011Z,3.10
2023-03-17T22:43:09.608Z,2.40
2023-03-17T22:45:43.018Z,2.73
2023-03-17T22:48:16.401Z,2.90
2023-03-17T22:50:49.587Z,2.50
2023-03-17T22:53:22.582Z,2.80
2023-03-17T22:55:56.580Z,2.60
2023-03-17T22:58:29.462Z,2.80
2023-03-17T23:01:03.000Z,3.00
2023-03-17T23:03:37.640Z,2.95
2023-03-17T23:06:11.608Z,2.60
2023-03-17T23:08:46.033Z,2.70
2023-03-17T23:11:20.432Z,2.63
2023-03-17T23:13:54.062Z,3.00
2023-03-17T23:16:27.499Z,2.70
2023-03-17T23:19:00.206Z,2.90
2023-03-17T23:21:33.575Z,3.23
2023-03-17T23:24:08.879Z,2.57
2023-03-17T23:26:42.436Z,3.13
2023-03-17T23:29:16.159Z,2.80
2023-03-17T23:31:49.229Z,2.67
2023-03-17T23:34:22.845Z,2.55
2023-03-17T23:36:55.400Z,2.70
2023-03-17T23:39:28.800Z,2.70
2023-03-17T23:42:02.032Z,2.67
2023-03-17T23:44:36.423Z,2.83
2023-03-17T23:47:10.725Z,2.73
2023-03-17T23:49:43.396Z,2.80
2023-03-17T23:52:17.209Z,3.50
2023-03-17T23:54:50.034Z,2.83
2023-03-17T23:57:23.989Z,2.63
2023-03-17T23:59:57.384Z,3.20
